createdAt,value
2019-04-14T00:01:54.427Z,100695.91
2019-04-14T00:04:26.973Z,100701.61
2019-04-14T00:06:59.006Z,100702.71
2019-04-14T00:09:29.917Z,100692.41
2019-04-14T00:12:03.017Z,100700.19
2019-04-14T00:14:33.546Z,100689.73
2019-04-14T00:17:04.590Z,100685.94
2019-04-14T00:19:34.941Z,100694.59
2019-04-14T00:22:05.448Z,100691.32
2019-04-14T00:24:35.808Z,100692.64
2019-04-14T00:27:06.375Z,100692.68
2019-04-14T00:29:37.136Z,100693.27
2019-04-14T00:32:09.560Z,100699.17
2019-04-14T00:34:42.719Z,100698.94
2019-04-14T00:37:20.680Z,100698.98
2019-04-14T00:39:53.670Z,100703.55
2019-04-14T00:42:29.804Z,100704.18
2019-04-14T00:45:04.856Z,100698.63
2019-04-14T00:47:51.712Z,100697.00
2019-04-14T00:50:14.726Z,100691.34
2019-04-14T00:52:45.829Z,100691.47
2019-04-14T00:55:16.469Z,100694.23
2019-04-14T00:57:46.945Z,100684.53
2019-04-14T01:00:19.281Z,100680.06
2019-04-14T01:02:51.495Z,100683.19
2019-04-14T01:05:24.130Z,100681.05
2019-04-14T01:07:54.543Z,100686.78
2019-04-14T01:10:25.678Z,100689.47
2019-04-14T01:12:56.122Z,100679.02
2019-04-14T01:15:26.758Z,100675.89
2019-04-14T01:17:57.239Z,100676.23
2019-04-14T01:20:27.593Z,100674.90
2019-04-14T01:22:58.038Z,100670.16
2019-04-14T01:25:28.374Z,100685.73
2019-04-14T01:27:58.770Z,100683.12
2019-04-14T01:30:29.165Z,100685.34
2019-04-14T01:33:01.015Z,100671.67
2019-04-14T01:35:31.838Z,100680.34
2019-04-14T01:38:02.204Z,100674.37
2019-04-14T01:40:33.714Z,100676.09
2019-04-14T01:43:04.182Z,100669.98
2019-04-14T01:45:35.715Z,100669.64
2019-04-14T01:48:06.318Z,100672.65
2019-04-14T01:50:41.283Z,100670.97
2019-04-14T01:53:16.062Z,100676.77
2019-04-14T01:55:50.438Z,100669.39
2019-04-14T01:58:25.311Z,100664.00
2019-04-14T02:01:04.109Z,100668.44
2019-04-14T02:03:34.750Z,100661.72
2019-04-14T02:06:07.090Z,100657.91
2019-04-14T02:11:39.823Z,100660.52
2019-04-14T02:14:10.760Z,100654.91
2019-04-14T02:16:47.175Z,100657.48
2019-04-14T02:19:13.233Z,100655.50
2019-04-14T02:21:43.880Z,100647.53
2019-04-14T02:24:15.594Z,100649.00
2019-04-14T02:26:47.965Z,100644.78
2019-04-14T02:29:19.012Z,100639.18
2019-04-14T02:32:17.559Z,100634.01
2019-04-14T02:34:49.449Z,100632.58
2019-04-14T02:37:24.175Z,100635.17
2019-04-14T02:39:53.864Z,100628.36
2019-04-14T02:42:36.514Z,100628.23
2019-04-14T02:47:44.544Z,100638.81
2019-04-14T02:50:05.397Z,100645.02
2019-04-14T02:52:35.261Z,100658.49
2019-04-14T02:55:05.245Z,100652.31
2019-04-14T02:57:52.554Z,100653.55
2019-04-14T03:00:19.474Z,100647.94
2019-04-14T03:05:22.346Z,100664.03
2019-04-14T03:13:00.666Z,100671.64
2019-04-14T03:15:23.998Z,100668.29
2019-04-14T03:18:23.962Z,100670.70
2019-04-14T03:21:07.326Z,100669.05
2019-04-14T03:23:46.754Z,100670.81
2019-04-14T03:26:29.769Z,100674.65
2019-04-14T03:28:59.009Z,100670.64
2019-04-14T03:34:29.854Z,100668.10
2019-04-14T03:39:33.467Z,100662.91
2019-04-14T03:41:45.582Z,100661.50
2019-04-14T03:44:25.790Z,100660.48
2019-04-14T03:46:50.617Z,100661.73
2019-04-14T03:49:26.906Z,100661.75
2019-04-14T03:51:57.625Z,100664.61
2019-04-14T03:54:22.728Z,100664.99
2019-04-14T03:56:46.730Z,100657.19
2019-04-14T03:59:19.474Z,100662.48
2019-04-14T04:01:50.380Z,100664.00
2019-04-14T04:04:21.010Z,100666.64
2019-04-14T04:06:53.046Z,100665.30
2019-04-14T04:09:25.715Z,100656.30
2019-04-14T04:11:56.687Z,100653.55
2019-04-14T04:14:27.188Z,100662.29
2019-04-14T04:16:59.595Z,100663.16
2019-04-14T04:19:33.808Z,100662.20
2019-04-14T04:22:24.406Z,100661.81
2019-04-14T04:24:56.671Z,100665.13
2019-04-14T04:27:48.292Z,100663.75
2019-04-14T04:30:36.264Z,100665.47
2019-04-14T04:33:21.792Z,100663.97
2019-04-14T04:35:57.265Z,100673.09
2019-04-14T04:38:29.423Z,100670.56
2019-04-14T04:40:59.949Z,100674.08
2019-04-14T04:43:30.558Z,100672.80
2019-04-14T04:46:01.007Z,100677.42
2019-04-14T04:48:32.768Z,100682.04
2019-04-14T04:51:05.024Z,100677.41
2019-04-14T04:53:36.244Z,100671.95
2019-04-14T04:56:08.002Z,100672.80
2019-04-14T04:58:39.142Z,100668.66
2019-04-14T05:01:09.982Z,100663.56
2019-04-14T05:03:41.057Z,100660.20
2019-04-14T05:06:30.885Z,100652.95
2019-04-14T05:09:15.159Z,100653.44
2019-04-14T05:12:04.459Z,100643.98
2019-04-14T05:14:43.459Z,100636.76
2019-04-14T05:17:16.886Z,100641.07
2019-04-14T05:19:47.600Z,100638.59
2019-04-14T05:22:19.358Z,100638.61
2019-04-14T05:24:50.833Z,100639.45
2019-04-14T05:27:21.467Z,100646.16
2019-04-14T05:29:51.886Z,100653.35
2019-04-14T05:32:22.505Z,100647.67
2019-04-14T05:34:54.289Z,100649.33
2019-04-14T05:37:24.895Z,100647.67
2019-04-14T05:39:55.526Z,100646.53
2019-04-14T05:42:27.505Z,100650.83
2019-04-14T05:44:58.624Z,100646.48
2019-04-14T05:47:30.430Z,100651.00
2019-04-14T05:50:01.528Z,100649.27
2019-04-14T05:52:33.963Z,100642.43
2019-04-14T05:55:06.608Z,100647.19
2019-04-14T05:57:37.285Z,100659.20
2019-04-14T06:00:10.366Z,100659.48
2019-04-14T06:02:42.017Z,100658.80
2019-04-14T06:05:13.031Z,100653.41
2019-04-14T06:07:44.005Z,100661.59
2019-04-14T06:10:15.704Z,100657.52
2019-04-14T06:12:46.214Z,100657.79
2019-04-14T06:15:16.685Z,100657.05
2019-04-14T06:17:47.109Z,100650.56
2019-04-14T06:20:17.670Z,100655.61
2019-04-14T06:22:48.163Z,100655.21
2019-04-14T06:25:18.653Z,100657.41
2019-04-14T06:27:49.385Z,100654.72
2019-04-14T06:30:24.830Z,100654.25
2019-04-14T06:32:56.688Z,100647.31
2019-04-14T06:35:37.733Z,100649.08
2019-04-14T06:38:10.245Z,100652.92
2019-04-14T06:40:42.506Z,100647.64
2019-04-14T06:43:13.238Z,100653.56
2019-04-14T06:45:44.080Z,100650.42
2019-04-14T06:48:14.809Z,100658.23
2019-04-14T06:50:46.565Z,100650.40
2019-04-14T06:53:18.504Z,100663.84
2019-04-14T06:55:50.005Z,100660.12
2019-04-14T06:58:20.814Z,100658.84
2019-04-14T07:00:52.277Z,100664.80
2019-04-14T07:03:22.893Z,100665.89
2019-04-14T07:05:54.404Z,100660.52
2019-04-14T07:08:25.148Z,100669.61
2019-04-14T07:10:55.913Z,100669.41
2019-04-14T07:13:26.442Z,100667.09
2019-04-14T07:15:57.075Z,100673.44
2019-04-14T07:18:29.087Z,100679.34
2019-04-14T07:20:59.978Z,100670.19
2019-04-14T07:23:30.711Z,100671.58
2019-04-14T07:26:02.337Z,100670.52
2019-04-14T07:28:38.290Z,100673.55
2019-04-14T07:31:10.486Z,100668.33
2019-04-14T07:33:57.705Z,100661.09
2019-04-14T07:36:42.266Z,100657.68
2019-04-14T07:39:15.521Z,100655.52
2019-04-14T07:41:47.717Z,100653.47
2019-04-14T07:44:24.882Z,100660.81
2019-04-14T07:47:06.144Z,100653.71
2019-04-14T07:49:43.165Z,100650.03
2019-04-14T07:52:33.303Z,100649.98
2019-04-14T07:55:09.008Z,100650.61
2019-04-14T07:57:53.381Z,100654.89
2019-04-14T08:00:31.305Z,100642.33
2019-04-14T08:03:03.621Z,100648.64
2019-04-14T08:05:38.907Z,100649.49
2019-04-14T08:08:11.341Z,100651.61
2019-04-14T08:10:41.867Z,100645.20
2019-04-14T08:13:14.422Z,100650.23
2019-04-14T08:15:44.972Z,100650.81
2019-04-14T08:18:15.503Z,100657.45
2019-04-14T08:20:46.034Z,100648.07
2019-04-14T08:23:16.970Z,100653.28
2019-04-14T08:25:47.701Z,100653.71
2019-04-14T08:28:18.129Z,100648.56
2019-04-14T08:30:48.861Z,100647.10
2019-04-14T08:33:19.699Z,100654.63
2019-04-14T08:35:50.327Z,100646.09
2019-04-14T08:38:20.759Z,100641.05
2019-04-14T08:40:51.177Z,100643.91
2019-04-14T08:43:39.936Z,100638.53
2019-04-14T08:46:18.351Z,100640.84
2019-04-14T08:48:58.699Z,100643.56
2019-04-14T08:51:30.678Z,100628.69
2019-04-14T08:54:06.197Z,100629.02
2019-04-14T08:56:44.425Z,100634.47
2019-04-14T08:59:19.769Z,100632.75
2019-04-14T09:01:55.212Z,100638.05
2019-04-14T09:04:39.324Z,100630.85
2019-04-14T09:07:26.579Z,100636.31
2019-04-14T09:10:01.900Z,100641.03
2019-04-14T09:12:37.160Z,100632.30
2019-04-14T09:15:08.684Z,100633.37
2019-04-14T09:17:39.831Z,100630.33
2019-04-14T09:20:10.896Z,100635.80
2019-04-14T09:22:41.426Z,100637.90
2019-04-14T09:25:12.364Z,100634.62
2019-04-14T09:27:43.099Z,100637.93
2019-04-14T09:30:14.339Z,100632.44
2019-04-14T09:32:44.725Z,100634.55
2019-04-14T09:35:15.087Z,100631.50
2019-04-14T09:37:46.312Z,100637.31
2019-04-14T09:40:17.070Z,100626.69
2019-04-14T09:42:48.001Z,100632.02
2019-04-14T09:45:18.634Z,100629.41
2019-04-14T09:47:49.367Z,100624.69
2019-04-14T09:50:20.201Z,100626.56
2019-04-14T09:52:51.347Z,100624.33
2019-04-14T09:55:23.507Z,100615.39
2019-04-14T09:57:55.297Z,100625.98
2019-04-14T10:00:26.282Z,100629.50
2019-04-14T10:02:57.465Z,100619.23
2019-04-14T10:05:29.213Z,100614.69
2019-04-14T10:07:59.738Z,100611.48
2019-04-14T10:10:30.309Z,100611.11
2019-04-14T10:13:01.002Z,100621.08
2019-04-14T10:15:31.505Z,100623.73
2019-04-14T10:18:02.117Z,100624.56
2019-04-14T10:20:32.688Z,100620.66
2019-04-14T10:23:03.524Z,100631.59
2019-04-14T10:25:34.053Z,100633.70
2019-04-14T10:28:04.992Z,100628.30
2019-04-14T10:30:35.519Z,100625.78
2019-04-14T10:33:06.152Z,100632.70
2019-04-14T10:35:36.923Z,100632.83
2019-04-14T10:38:07.724Z,100625.89
2019-04-14T10:40:38.343Z,100627.21
2019-04-14T10:43:08.828Z,100624.89
2019-04-14T10:45:39.277Z,100622.83
2019-04-14T10:48:09.822Z,100621.90
2019-04-14T10:50:40.231Z,100611.88
2019-04-14T10:53:10.941Z,100621.50
2019-04-14T10:55:41.379Z,100619.63
2019-04-14T10:58:13.213Z,100614.84
2019-04-14T11:00:43.807Z,100611.90
2019-04-14T11:03:14.443Z,100602.77
2019-04-14T11:05:49.986Z,100616.74
2019-04-14T11:08:24.054Z,100610.50
2019-04-14T11:10:54.831Z,100618.30
2019-04-14T11:13:25.354Z,100618.93
2019-04-14T11:15:55.783Z,100623.16
2019-04-14T11:18:26.309Z,100618.39
2019-04-14T11:20:56.942Z,100624.40
2019-04-14T11:23:27.667Z,100619.34
2019-04-14T11:25:58.099Z,100619.52
2019-04-14T11:28:30.206Z,100616.53
2019-04-14T11:31:01.167Z,100617.92
2019-04-14T11:33:33.646Z,100614.91
2019-04-14T11:36:21.262Z,100615.52
2019-04-14T11:38:53.597Z,100614.55
2019-04-14T11:41:24.893Z,100611.55
2019-04-14T11:43:55.666Z,100607.31
2019-04-14T11:46:26.187Z,100602.01
2019-04-14T11:48:56.712Z,100614.95
2019-04-14T11:51:27.856Z,100600.55
2019-04-14T11:53:58.589Z,100602.59
2019-04-14T11:56:29.333Z,100602.13
2019-04-14T11:59:01.165Z,100601.62
2019-04-14T12:01:50.397Z,100608.65
2019-04-14T12:04:37.774Z,100600.31
2019-04-14T12:07:16.203Z,100604.13
2019-04-14T12:09:49.378Z,100591.45
2019-04-14T12:12:20.211Z,100605.91
2019-04-14T12:14:51.355Z,100582.73
2019-04-14T12:17:21.960Z,100596.95
2019-04-14T12:19:52.616Z,100588.33
2019-04-14T12:22:23.195Z,100583.28
2019-04-14T12:24:53.572Z,100582.76
2019-04-14T12:27:24.304Z,100579.81
2019-04-14T12:29:55.038Z,100578.97
2019-04-14T12:32:25.953Z,100585.25
2019-04-14T12:34:56.521Z,100577.42
2019-04-14T12:37:26.974Z,100582.56
2019-04-14T12:39:58.906Z,100575.52
2019-04-14T12:42:31.049Z,100571.53
2019-04-14T12:45:20.434Z,100581.41
2019-04-14T12:47:52.592Z,100568.94
2019-04-14T12:50:24.968Z,100572.66
2019-04-14T12:52:56.405Z,100571.95
2019-04-14T12:55:27.251Z,100574.19
2019-04-14T12:57:59.416Z,100577.16
2019-04-14T13:00:46.770Z,100573.50
2019-04-14T13:03:17.340Z,100573.70
2019-04-14T13:05:48.116Z,100568.44
2019-04-14T13:08:19.977Z,100576.31
2019-04-14T13:10:50.778Z,100567.59
2019-04-14T13:13:21.513Z,100574.41
2019-04-14T13:15:52.078Z,100574.17
2019-04-14T13:18:22.695Z,100572.59
2019-04-14T13:20:53.325Z,100566.37
2019-04-14T13:23:23.856Z,100562.08
2019-04-14T13:25:54.606Z,100568.28
2019-04-14T13:28:25.215Z,100572.41
2019-04-14T13:30:55.947Z,100561.44
2019-04-14T13:33:26.492Z,100568.92
2019-04-14T13:35:57.072Z,100565.73
2019-04-14T13:38:27.531Z,100567.69
2019-04-14T13:40:58.472Z,100563.58
2019-04-14T13:43:29.281Z,100568.38
2019-04-14T13:45:59.975Z,100571.34
2019-04-14T13:48:30.641Z,100568.70
2019-04-14T13:51:01.101Z,100569.24
2019-04-14T13:53:33.349Z,100571.03
2019-04-14T13:56:04.008Z,100572.43
2019-04-14T13:58:37.959Z,100575.87
2019-04-14T14:01:08.333Z,100569.63
2019-04-14T14:03:38.952Z,100575.08
2019-04-14T14:06:09.801Z,100567.27
2019-04-14T14:08:40.225Z,100570.13
2019-04-14T14:11:14.302Z,100565.80
2019-04-14T14:13:50.604Z,100568.06
2019-04-14T14:16:26.144Z,100559.97
2019-04-14T14:18:58.356Z,100561.66
2019-04-14T14:21:33.863Z,100557.89
2019-04-14T14:24:22.613Z,100556.17
2019-04-14T14:26:54.890Z,100553.98
2019-04-14T14:29:25.414Z,100558.39
2019-04-14T14:31:57.215Z,100551.48
2019-04-14T14:34:28.485Z,100552.70
2019-04-14T14:36:59.359Z,100560.87
2019-04-14T14:39:30.808Z,100550.91
2019-04-14T14:42:01.739Z,100551.09
2019-04-14T14:44:36.519Z,100545.65
2019-04-14T14:47:21.659Z,100546.15
2019-04-14T14:49:54.733Z,100545.69
2019-04-14T14:52:25.665Z,100542.31
2019-04-14T14:54:56.295Z,100534.08
2019-04-14T14:57:27.133Z,100539.31
2019-04-14T14:59:59.708Z,100547.08
2019-04-14T15:02:31.030Z,100539.31
2019-04-14T15:05:01.661Z,100540.31
2019-04-14T15:07:32.203Z,100535.58
2019-04-14T15:10:02.721Z,100540.62
2019-04-14T15:12:33.375Z,100537.08
2019-04-14T15:15:04.821Z,100538.77
2019-04-14T15:17:35.351Z,100534.01
2019-04-14T15:20:06.184Z,100538.48
2019-04-14T15:22:36.793Z,100535.80
2019-04-14T15:25:07.839Z,100537.58
2019-04-14T15:27:38.388Z,100536.91
2019-04-14T15:30:11.082Z,100539.87
2019-04-14T15:32:41.773Z,100535.33
2019-04-14T15:35:12.481Z,100535.50
2019-04-14T15:37:43.169Z,100537.30
2019-04-14T15:40:13.978Z,100531.13
2019-04-14T15:42:45.550Z,100532.45
2019-04-14T15:45:16.078Z,100528.55
2019-04-14T15:47:46.811Z,100526.51
2019-04-14T15:50:19.080Z,100524.89
2019-04-14T15:52:50.053Z,100527.24
2019-04-14T15:55:20.959Z,100533.93
2019-04-14T15:58:05.414Z,100538.77
2019-04-14T16:00:37.784Z,100537.70
2019-04-14T16:03:10.466Z,100535.75
2019-04-14T16:05:42.844Z,100544.16
2019-04-14T16:08:15.102Z,100545.58
2019-04-14T16:10:47.276Z,100544.36
2019-04-14T16:13:25.069Z,100542.47
2019-04-14T16:15:58.934Z,100544.28
2019-04-14T16:18:47.834Z,100543.52
2019-04-14T16:21:18.773Z,100536.84
2019-04-14T16:23:51.311Z,100540.81
2019-04-14T16:26:23.517Z,100540.38
2019-04-14T16:28:55.996Z,100538.23
2019-04-14T16:31:44.902Z,100537.50
2019-04-14T16:34:17.125Z,100537.07
2019-04-14T16:36:49.386Z,100545.47
2019-04-14T16:39:20.425Z,100539.38
2019-04-14T16:41:51.027Z,100544.28
2019-04-14T16:44:21.449Z,100541.33
2019-04-14T16:46:53.261Z,100542.13
2019-04-14T16:49:25.112Z,100546.59
2019-04-14T16:51:59.621Z,100547.48
2019-04-14T16:54:35.472Z,100548.34
2019-04-14T16:57:10.717Z,100542.19
2019-04-14T16:59:41.860Z,100554.03
2019-04-14T17:02:12.694Z,100553.77
2019-04-14T17:04:43.324Z,100563.12
2019-04-14T17:07:14.161Z,100559.18
2019-04-14T17:09:48.262Z,100572.44
2019-04-14T17:12:19.929Z,100567.70
2019-04-14T17:15:13.046Z,100569.95
2019-04-14T17:17:45.455Z,100577.80
2019-04-14T17:20:21.213Z,100571.33
2019-04-14T17:22:59.619Z,100569.32
2019-04-14T17:25:38.540Z,100584.28
2019-04-14T17:28:16.957Z,100571.66
2019-04-14T17:30:49.433Z,100588.50
2019-04-14T17:33:28.051Z,100576.58
2019-04-14T17:36:00.423Z,100575.34
2019-04-14T17:38:43.220Z,100587.33
2019-04-14T17:41:21.958Z,100585.48
2019-04-14T17:43:54.336Z,100583.67
2019-04-14T17:46:29.342Z,100588.42
2019-04-14T17:49:01.942Z,100583.97
2019-04-14T17:51:35.133Z,100582.96
2019-04-14T17:54:07.738Z,100593.97
2019-04-14T17:56:48.886Z,100591.74
2019-04-14T17:59:30.476Z,100583.89
2019-04-14T18:02:02.939Z,100580.77
2019-04-14T18:04:50.067Z,100581.60
2019-04-14T18:07:22.331Z,100591.09
2019-04-14T18:10:10.581Z,100594.70
2019-04-14T18:12:46.326Z,100586.86
2019-04-14T18:15:18.505Z,100588.20
2019-04-14T18:18:01.412Z,100592.84
2019-04-14T18:20:33.886Z,100586.66
2019-04-14T18:23:04.929Z,100578.02
2019-04-14T18:25:35.570Z,100580.66
2019-04-14T18:28:10.595Z,100578.81
2019-04-14T18:30:43.583Z,100583.52
2019-04-14T18:33:32.567Z,100597.69
2019-04-14T18:36:05.013Z,100593.45
2019-04-14T18:38:42.951Z,100584.89
2019-04-14T18:41:25.632Z,100581.33
2019-04-14T18:44:14.900Z,100589.19
2019-04-14T18:47:03.922Z,100581.77
2019-04-14T18:49:50.857Z,100585.77
2019-04-14T18:52:23.550Z,100581.45
2019-04-14T18:54:56.000Z,100577.61
2019-04-14T18:57:28.296Z,100578.72
2019-04-14T19:00:03.228Z,100579.77
2019-04-14T19:02:35.778Z,100574.29
2019-04-14T19:05:06.534Z,100583.97
2019-04-14T19:07:39.418Z,100572.20
2019-04-14T19:10:10.225Z,100583.97
2019-04-14T19:12:43.243Z,100576.27
2019-04-14T19:15:27.695Z,100574.47
2019-04-14T19:18:00.066Z,100582.06
2019-04-14T19:20:30.696Z,100569.78
2019-04-14T19:23:01.349Z,100567.98
2019-04-14T19:25:31.957Z,100576.81
2019-04-14T19:28:04.232Z,100583.93
2019-04-14T19:30:34.739Z,100575.34
2019-04-14T19:33:05.593Z,100570.62
2019-04-14T19:35:36.090Z,100585.64
2019-04-14T19:38:06.956Z,100582.33
2019-04-14T19:40:37.791Z,100572.72
2019-04-14T19:43:08.592Z,100568.87
2019-04-14T19:45:39.025Z,100569.61
2019-04-14T19:48:09.784Z,100577.09
2019-04-14T19:50:40.623Z,100573.20
2019-04-14T19:53:11.660Z,100589.02
2019-04-14T19:55:42.292Z,100580.75
2019-04-14T19:58:13.028Z,100588.02
2019-04-14T20:00:43.765Z,100590.02
2019-04-14T20:03:14.908Z,100571.97
2019-04-14T20:05:45.432Z,100580.73
2019-04-14T20:08:15.961Z,100596.61
2019-04-14T20:10:46.589Z,100579.63
2019-04-14T20:13:17.321Z,100572.66
2019-04-14T20:15:58.910Z,100580.94
2019-04-14T20:18:34.357Z,100580.67
2019-04-14T20:21:22.814Z,100583.03
2019-04-14T20:23:57.909Z,100580.67
2019-04-14T20:26:46.292Z,100581.16
2019-04-14T20:29:18.761Z,100580.77
2019-04-14T20:31:52.155Z,100580.76
2019-04-14T20:34:23.929Z,100586.77
2019-04-14T20:36:54.540Z,100589.36
2019-04-14T20:39:25.380Z,100584.64
2019-04-14T20:41:56.116Z,100574.02
2019-04-14T20:44:26.846Z,100571.84
2019-04-14T20:46:57.549Z,100575.86
2019-04-14T20:49:28.412Z,100577.56
2019-04-14T20:51:59.736Z,100574.87
2019-04-14T20:54:30.870Z,100577.95
2019-04-14T20:57:01.329Z,100584.64
2019-04-14T20:59:33.093Z,100567.95
2019-04-14T21:02:23.089Z,100580.36
2019-04-14T21:05:07.609Z,100580.36
2019-04-14T21:07:55.974Z,100583.48
2019-04-14T21:10:34.283Z,100590.61
2019-04-14T21:13:12.871Z,100581.51
2019-04-14T21:15:48.650Z,100590.33
2019-04-14T21:18:23.480Z,100588.56
2019-04-14T21:20:55.871Z,100584.17
2019-04-14T21:23:28.229Z,100586.92
2019-04-14T21:26:15.854Z,100591.27
2019-04-14T21:28:55.355Z,100588.63
2019-04-14T21:31:39.367Z,100588.70
2019-04-14T21:34:11.612Z,100582.05
2019-04-14T21:36:43.978Z,100586.94
2019-04-14T21:39:16.351Z,100588.25
2019-04-14T21:41:48.616Z,100581.66
2019-04-14T21:44:19.221Z,100584.39
2019-04-14T21:46:50.191Z,100584.81
2019-04-14T21:49:20.921Z,100585.30
2019-04-14T21:52:05.484Z,100579.09
2019-04-14T21:54:36.392Z,100580.89
2019-04-14T21:57:13.475Z,100576.48
2019-04-14T22:00:02.666Z,100582.20
2019-04-14T22:02:53.473Z,100569.90
2019-04-14T22:05:42.740Z,100566.41
2019-04-14T22:08:25.420Z,100559.77
2019-04-14T22:10:58.945Z,100560.22
2019-04-14T22:13:30.093Z,100558.91
2019-04-14T22:16:00.617Z,100562.02
2019-04-14T22:18:31.348Z,100565.03
2019-04-14T22:21:02.081Z,100562.32
2019-04-14T22:23:32.814Z,100566.41
2019-04-14T22:26:03.343Z,100561.23
2019-04-14T22:28:34.180Z,100559.92
2019-04-14T22:31:04.816Z,100552.92
2019-04-14T22:33:35.542Z,100554.66
2019-04-14T22:36:06.279Z,100552.06
2019-04-14T22:38:38.509Z,100552.88
2019-04-14T22:41:09.178Z,100551.95
2019-04-14T22:43:41.091Z,100557.22
2019-04-14T22:46:11.870Z,100551.16
2019-04-14T22:48:42.783Z,100549.05
2019-04-14T22:51:14.465Z,100546.69
2019-04-14T22:53:45.481Z,100551.63
2019-04-14T22:56:15.933Z,100547.27
2019-04-14T22:58:46.360Z,100549.37
2019-04-14T23:01:19.550Z,100536.59
2019-04-14T23:04:03.253Z,100537.66
2019-04-14T23:06:51.943Z,100532.80
2019-04-14T23:09:29.840Z,100528.92
2019-04-14T23:12:02.627Z,100527.63
2019-04-14T23:14:36.340Z,100528.95
2019-04-14T23:17:12.784Z,100527.48
2019-04-14T23:19:48.748Z,100522.34
2019-04-14T23:22:32.998Z,100527.95
2019-04-14T23:25:04.081Z,100530.66
2019-04-14T23:27:36.147Z,100522.34
2019-04-14T23:30:07.010Z,100521.49
2019-04-14T23:32:37.569Z,100521.52
2019-04-14T23:35:09.027Z,100523.20
2019-04-14T23:37:40.902Z,100518.33
2019-04-14T23:40:11.714Z,100519.32
2019-04-14T23:42:42.345Z,100511.83
2019-04-14T23:45:13.078Z,100518.48
2019-04-14T23:47:43.505Z,100515.44
2019-04-14T23:50:13.930Z,100528.55
2019-04-14T23:52:44.835Z,100525.45
2019-04-14T23:55:15.501Z,100512.77
2019-04-14T23:57:46.133Z,100511.99
